Archival Weather

Ambodedjo

Ambodedjo, Mali (GAMB)

Report from: Wednesday, December 6, 2023 10:00 AM GMT
Current time: Friday, February 23, 2024 7:15 PM GMT

Current weather – Weather history – Daily summaries
Weather forecast

Temperature30.0°C (86.0°F)
Heat index28.3°C (82.9°F)
Dew point5.0°C (41.0°F)
Winds 4 kts (2.1 m/s, 4.6 mph) Northeast (40°)
Visibility5 mi. (8 km)
Altimeter29.94 in.Hg (1014 mB)
Relative humidity21 %
Density altitude1,825 ft. (556 m)
Flight conditions Marginal Visual Meteorological Conditions
Raw dataGAMB 061000Z 04004KT 8000 NSC 30/05 Q1014
An error has occurred. This application may no longer respond until reloaded. Reload 🗙